sensor_id;sensor_type;location;lat;lon;timestamp;P1;durP1;ratioP1;P2;durP2;ratioP2
49948;SDS011;35840;45.982;8.890;2022-07-29T00:02:24;1.70;;;1.20;;
49948;SDS011;35840;45.982;8.890;2022-07-29T00:04:51;1.58;;;1.45;;
49948;SDS011;35840;45.982;8.890;2022-07-29T00:07:17;4.15;;;0.93;;
49948;SDS011;35840;45.982;8.890;2022-07-29T00:09:44;1.85;;;1.10;;
49948;SDS011;35840;45.982;8.890;2022-07-29T00:12:20;2.33;;;1.20;;
49948;SDS011;35840;45.982;8.890;2022-07-29T00:14:55;0.95;;;0.85;;
49948;SDS011;35840;45.982;8.890;2022-07-29T00:17:22;1.73;;;0.95;;
49948;SDS011;35840;45.982;8.890;2022-07-29T00:19:50;2.47;;;1.00;;
49948;SDS011;35840;45.982;8.890;2022-07-29T00:22:17;3.65;;;1.13;;
49948;SDS011;35840;45.982;8.890;2022-07-29T00:24:46;2.00;;;1.10;;
49948;SDS011;35840;45.982;8.890;2022-07-29T00:27:15;0.90;;;0.90;;
49948;SDS011;35840;45.982;8.890;2022-07-29T00:29:42;1.67;;;1.10;;
49948;SDS011;35840;45.982;8.890;2022-07-29T00:32:08;3.20;;;1.20;;
49948;SDS011;35840;45.982;8.890;2022-07-29T00:34:35;3.58;;;1.38;;
49948;SDS011;35840;45.982;8.890;2022-07-29T00:37:20;1.75;;;1.17;;
49948;SDS011;35840;45.982;8.890;2022-07-29T00:39:47;3.92;;;1.42;;
49948;SDS011;35840;45.982;8.890;2022-07-29T00:42:14;1.35;;;1.00;;
49948;SDS011;35840;45.982;8.890;2022-07-29T00:44:40;3.25;;;1.33;;
49948;SDS011;35840;45.982;8.890;2022-07-29T00:47:08;3.60;;;1.00;;
49948;SDS011;35840;45.982;8.890;2022-07-29T00:49:37;1.10;;;1.10;;
49948;SDS011;35840;45.982;8.890;2022-07-29T00:52:06;3.08;;;1.38;;
49948;SDS011;35840;45.982;8.890;2022-07-29T00:54:34;1.92;;;1.20;;
49948;SDS011;35840;45.982;8.890;2022-07-29T00:57:09;0.80;;;0.80;;
49948;SDS011;35840;45.982;8.890;2022-07-29T00:59:35;1.80;;;1.08;;
49948;SDS011;35840;45.982;8.890;2022-07-29T01:02:02;6.43;;;1.48;;
49948;SDS011;35840;45.982;8.890;2022-07-29T01:04:30;3.97;;;1.00;;
49948;SDS011;35840;45.982;8.890;2022-07-29T01:06:58;5.65;;;1.65;;
49948;SDS011;35840;45.982;8.890;2022-07-29T01:09:28;6.15;;;1.17;;
49948;SDS011;35840;45.982;8.890;2022-07-29T01:12:16;3.28;;;1.20;;
49948;SDS011;35840;45.982;8.890;2022-07-29T01:14:45;1.52;;;0.95;;
49948;SDS011;35840;45.982;8.890;2022-07-29T01:17:26;4.18;;;1.23;;
49948;SDS011;35840;45.982;8.890;2022-07-29T01:25:13;1.92;;;1.00;;
49948;SDS011;35840;45.982;8.890;2022-07-29T01:30:49;2.55;;;1.30;;
49948;SDS011;35840;45.982;8.890;2022-07-29T01:33:18;2.85;;;1.23;;
49948;SDS011;35840;45.982;8.890;2022-07-29T01:38:57;1.30;;;1.00;;
49948;SDS011;35840;45.982;8.890;2022-07-29T01:41:31;6.63;;;1.90;;
49948;SDS011;35840;45.982;8.890;2022-07-29T01:44:02;8.05;;;1.35;;
49948;SDS011;35840;45.982;8.890;2022-07-29T01:46:45;4.07;;;1.60;;
49948;SDS011;35840;45.982;8.890;2022-07-29T01:49:23;4.30;;;1.92;;
49948;SDS011;35840;45.982;8.890;2022-07-29T01:52:04;2.20;;;1.10;;
49948;SDS011;35840;45.982;8.890;2022-07-29T01:54:35;2.38;;;1.17;;
49948;SDS011;35840;45.982;8.890;2022-07-29T01:57:13;1.58;;;1.20;;
49948;SDS011;35840;45.982;8.890;2022-07-29T01:59:43;3.83;;;0.98;;
49948;SDS011;35840;45.982;8.890;2022-07-29T02:02:13;1.48;;;1.23;;
49948;SDS011;35840;45.982;8.890;2022-07-29T02:04:42;1.67;;;1.30;;
49948;SDS011;35840;45.982;8.890;2022-07-29T02:07:12;1.25;;;1.02;;
49948;SDS011;35840;45.982;8.890;2022-07-29T02:09:41;2.17;;;1.23;;
49948;SDS011;35840;45.982;8.890;2022-07-29T02:12:10;7.78;;;1.95;;
49948;SDS011;35840;45.982;8.890;2022-07-29T02:14:42;1.23;;;1.13;;
49948;SDS011;35840;45.982;8.890;2022-07-29T02:17:13;1.77;;;1.10;;
49948;SDS011;35840;45.982;8.890;2022-07-29T02:19:48;2.87;;;1.20;;
49948;SDS011;35840;45.982;8.890;2022-07-29T02:22:16;5.78;;;1.08;;
49948;SDS011;35840;45.982;8.890;2022-07-29T02:24:45;2.67;;;1.40;;
49948;SDS011;35840;45.982;8.890;2022-07-29T02:27:13;1.30;;;1.10;;
49948;SDS011;35840;45.982;8.890;2022-07-29T02:29:41;3.33;;;1.52;;
49948;SDS011;35840;45.982;8.890;2022-07-29T02:32:09;1.52;;;1.02;;
49948;SDS011;35840;45.982;8.890;2022-07-29T02:34:39;2.08;;;1.05;;
49948;SDS011;35840;45.982;8.890;2022-07-29T02:37:09;2.70;;;1.20;;
49948;SDS011;35840;45.982;8.890;2022-07-29T02:39:37;5.25;;;1.92;;
49948;SDS011;35840;45.982;8.890;2022-07-29T02:42:07;1.58;;;0.80;;
49948;SDS011;35840;45.982;8.890;2022-07-29T02:44:36;8.50;;;1.30;;
49948;SDS011;35840;45.982;8.890;2022-07-29T02:47:23;1.33;;;1.02;;
49948;SDS011;35840;45.982;8.890;2022-07-29T02:50:09;4.10;;;1.08;;
49948;SDS011;35840;45.982;8.890;2022-07-29T02:52:41;2.58;;;1.10;;
49948;SDS011;35840;45.982;8.890;2022-07-29T02:55:14;3.83;;;1.23;;
49948;SDS011;35840;45.982;8.890;2022-07-29T02:57:43;3.00;;;1.10;;
49948;SDS011;35840;45.982;8.890;2022-07-29T03:00:20;1.45;;;1.23;;
49948;SDS011;35840;45.982;8.890;2022-07-29T03:02:49;3.45;;;1.08;;
49948;SDS011;35840;45.982;8.890;2022-07-29T03:05:19;2.55;;;0.90;;
49948;SDS011;35840;45.982;8.890;2022-07-29T03:07:49;2.85;;;1.63;;
49948;SDS011;35840;45.982;8.890;2022-07-29T03:10:21;2.27;;;1.10;;
49948;SDS011;35840;45.982;8.890;2022-07-29T03:12:51;1.73;;;1.15;;
49948;SDS011;35840;45.982;8.890;2022-07-29T03:15:18;1.10;;;1.00;;
49948;SDS011;35840;45.982;8.890;2022-07-29T03:17:45;6.32;;;1.33;;
49948;SDS011;35840;45.982;8.890;2022-07-29T03:20:12;1.25;;;1.15;;
49948;SDS011;35840;45.982;8.890;2022-07-29T03:22:40;2.80;;;1.02;;
49948;SDS011;35840;45.982;8.890;2022-07-29T03:25:14;0.98;;;0.98;;
49948;SDS011;35840;45.982;8.890;2022-07-29T03:27:42;3.97;;;1.38;;
49948;SDS011;35840;45.982;8.890;2022-07-29T03:30:10;2.55;;;1.70;;
49948;SDS011;35840;45.982;8.890;2022-07-29T03:32:46;3.38;;;1.40;;
49948;SDS011;35840;45.982;8.890;2022-07-29T03:35:13;3.25;;;1.17;;
49948;SDS011;35840;45.982;8.890;2022-07-29T03:37:40;2.50;;;1.10;;
49948;SDS011;35840;45.982;8.890;2022-07-29T03:40:07;2.53;;;1.20;;
49948;SDS011;35840;45.982;8.890;2022-07-29T03:42:35;2.70;;;1.33;;
49948;SDS011;35840;45.982;8.890;2022-07-29T03:45:07;4.05;;;1.05;;
49948;SDS011;35840;45.982;8.890;2022-07-29T03:47:38;2.75;;;1.42;;
49948;SDS011;35840;45.982;8.890;2022-07-29T03:50:15;1.40;;;1.27;;
49948;SDS011;35840;45.982;8.890;2022-07-29T03:52:43;4.15;;;1.30;;
49948;SDS011;35840;45.982;8.890;2022-07-29T03:55:10;3.15;;;1.05;;
49948;SDS011;35840;45.982;8.890;2022-07-29T03:57:38;3.72;;;1.38;;
49948;SDS011;35840;45.982;8.890;2022-07-29T04:00:06;4.43;;;1.40;;
49948;SDS011;35840;45.982;8.890;2022-07-29T04:02:36;1.35;;;1.00;;
49948;SDS011;35840;45.982;8.890;2022-07-29T04:05:04;1.20;;;1.10;;
49948;SDS011;35840;45.982;8.890;2022-07-29T04:07:31;6.90;;;1.30;;
49948;SDS011;35840;45.982;8.890;2022-07-29T04:09:58;1.70;;;1.50;;
49948;SDS011;35840;45.982;8.890;2022-07-29T04:12:25;2.33;;;1.38;;
49948;SDS011;35840;45.982;8.890;2022-07-29T04:14:51;2.00;;;1.50;;
49948;SDS011;35840;45.982;8.890;2022-07-29T04:17:18;3.38;;;1.38;;
49948;SDS011;35840;45.982;8.890;2022-07-29T04:19:44;2.63;;;1.48;;
49948;SDS011;35840;45.982;8.890;2022-07-29T04:22:11;1.48;;;1.33;;
49948;SDS011;35840;45.982;8.890;2022-07-29T04:24:38;4.30;;;1.55;;
49948;SDS011;35840;45.982;8.890;2022-07-29T04:27:09;3.15;;;1.40;;
49948;SDS011;35840;45.982;8.890;2022-07-29T04:29:36;3.20;;;1.17;;
49948;SDS011;35840;45.982;8.890;2022-07-29T04:32:22;1.23;;;1.13;;
49948;SDS011;35840;45.982;8.890;2022-07-29T04:34:49;4.50;;;1.58;;
49948;SDS011;35840;45.982;8.890;2022-07-29T04:37:16;1.88;;;1.10;;
49948;SDS011;35840;45.982;8.890;2022-07-29T04:39:42;1.60;;;1.20;;
49948;SDS011;35840;45.982;8.890;2022-07-29T04:42:09;5.50;;;1.88;;
49948;SDS011;35840;45.982;8.890;2022-07-29T04:44:36;6.43;;;1.70;;
49948;SDS011;35840;45.982;8.890;2022-07-29T04:47:07;1.25;;;1.13;;
49948;SDS011;35840;45.982;8.890;2022-07-29T04:49:37;1.10;;;1.00;;
49948;SDS011;35840;45.982;8.890;2022-07-29T04:52:04;2.05;;;1.50;;
49948;SDS011;35840;45.982;8.890;2022-07-29T04:54:31;1.52;;;1.38;;
49948;SDS011;35840;45.982;8.890;2022-07-29T04:56:58;3.72;;;1.10;;
49948;SDS011;35840;45.982;8.890;2022-07-29T04:59:25;1.45;;;1.17;;
49948;SDS011;35840;45.982;8.890;2022-07-29T05:01:52;1.95;;;1.20;;
49948;SDS011;35840;45.982;8.890;2022-07-29T05:04:19;3.67;;;1.38;;
49948;SDS011;35840;45.982;8.890;2022-07-29T05:06:46;1.60;;;1.17;;
49948;SDS011;35840;45.982;8.890;2022-07-29T05:09:13;2.90;;;1.40;;
49948;SDS011;35840;45.982;8.890;2022-07-29T05:11:40;2.05;;;1.52;;
49948;SDS011;35840;45.982;8.890;2022-07-29T05:14:06;8.80;;;1.90;;
49948;SDS011;35840;45.982;8.890;2022-07-29T05:16:33;14.52;;;2.40;;
49948;SDS011;35840;45.982;8.890;2022-07-29T05:18:59;6.10;;;2.33;;
49948;SDS011;35840;45.982;8.890;2022-07-29T05:21:26;2.90;;;1.30;;
49948;SDS011;35840;45.982;8.890;2022-07-29T05:23:53;3.35;;;1.40;;
49948;SDS011;35840;45.982;8.890;2022-07-29T05:26:19;1.98;;;1.25;;
49948;SDS011;35840;45.982;8.890;2022-07-29T05:28:46;4.38;;;1.80;;
49948;SDS011;35840;45.982;8.890;2022-07-29T05:31:12;3.25;;;1.60;;
49948;SDS011;35840;45.982;8.890;2022-07-29T05:33:41;4.38;;;1.83;;
49948;SDS011;35840;45.982;8.890;2022-07-29T05:36:08;2.75;;;1.50;;
49948;SDS011;35840;45.982;8.890;2022-07-29T05:38:35;3.20;;;1.65;;
49948;SDS011;35840;45.982;8.890;2022-07-29T05:41:02;2.97;;;1.80;;
49948;SDS011;35840;45.982;8.890;2022-07-29T05:43:30;5.10;;;1.90;;
49948;SDS011;35840;45.982;8.890;2022-07-29T05:45:57;1.30;;;1.15;;
49948;SDS011;35840;45.982;8.890;2022-07-29T05:48:24;5.03;;;1.80;;
49948;SDS011;35840;45.982;8.890;2022-07-29T05:50:51;3.33;;;1.30;;
49948;SDS011;35840;45.982;8.890;2022-07-29T05:53:19;2.33;;;1.63;;
49948;SDS011;35840;45.982;8.890;2022-07-29T05:55:47;1.83;;;1.55;;
49948;SDS011;35840;45.982;8.890;2022-07-29T05:58:13;1.55;;;1.30;;
49948;SDS011;35840;45.982;8.890;2022-07-29T06:00:40;1.40;;;1.30;;
49948;SDS011;35840;45.982;8.890;2022-07-29T06:03:07;1.60;;;1.30;;
49948;SDS011;35840;45.982;8.890;2022-07-29T06:05:33;4.10;;;1.80;;
49948;SDS011;35840;45.982;8.890;2022-07-29T06:08:00;6.53;;;1.67;;
49948;SDS011;35840;45.982;8.890;2022-07-29T06:10:27;12.38;;;2.72;;
49948;SDS011;35840;45.982;8.890;2022-07-29T06:12:53;3.28;;;2.00;;
49948;SDS011;35840;45.982;8.890;2022-07-29T06:15:20;5.07;;;1.50;;
49948;SDS011;35840;45.982;8.890;2022-07-29T06:17:47;5.38;;;1.70;;
49948;SDS011;35840;45.982;8.890;2022-07-29T06:20:26;3.08;;;2.03;;
49948;SDS011;35840;45.982;8.890;2022-07-29T06:22:57;3.78;;;1.70;;
49948;SDS011;35840;45.982;8.890;2022-07-29T06:25:25;2.90;;;1.48;;
49948;SDS011;35840;45.982;8.890;2022-07-29T06:27:52;1.60;;;1.50;;
49948;SDS011;35840;45.982;8.890;2022-07-29T06:30:19;2.22;;;1.40;;
49948;SDS011;35840;45.982;8.890;2022-07-29T06:32:46;2.08;;;1.73;;
49948;SDS011;35840;45.982;8.890;2022-07-29T06:35:13;1.33;;;1.10;;
49948;SDS011;35840;45.982;8.890;2022-07-29T06:38:00;2.15;;;1.20;;
49948;SDS011;35840;45.982;8.890;2022-07-29T06:40:27;3.33;;;1.48;;
49948;SDS011;35840;45.982;8.890;2022-07-29T06:43:17;2.60;;;1.65;;
49948;SDS011;35840;45.982;8.890;2022-07-29T06:45:44;3.42;;;1.50;;
49948;SDS011;35840;45.982;8.890;2022-07-29T06:48:10;2.67;;;1.70;;
49948;SDS011;35840;45.982;8.890;2022-07-29T06:50:37;4.15;;;1.77;;
49948;SDS011;35840;45.982;8.890;2022-07-29T06:53:04;1.50;;;1.40;;
49948;SDS011;35840;45.982;8.890;2022-07-29T06:55:30;1.23;;;1.05;;
49948;SDS011;35840;45.982;8.890;2022-07-29T06:57:57;4.05;;;1.60;;
49948;SDS011;35840;45.982;8.890;2022-07-29T07:00:24;4.78;;;1.17;;
49948;SDS011;35840;45.982;8.890;2022-07-29T07:02:51;2.15;;;1.30;;
49948;SDS011;35840;45.982;8.890;2022-07-29T07:05:17;5.90;;;1.63;;
49948;SDS011;35840;45.982;8.890;2022-07-29T07:07:44;1.30;;;1.15;;
49948;SDS011;35840;45.982;8.890;2022-07-29T07:10:11;2.75;;;1.58;;
49948;SDS011;35840;45.982;8.890;2022-07-29T07:12:37;4.97;;;1.58;;
49948;SDS011;35840;45.982;8.890;2022-07-29T07:15:04;2.33;;;1.45;;
49948;SDS011;35840;45.982;8.890;2022-07-29T07:17:31;2.72;;;1.33;;
49948;SDS011;35840;45.982;8.890;2022-07-29T07:19:58;2.00;;;1.67;;
49948;SDS011;35840;45.982;8.890;2022-07-29T07:22:25;2.85;;;1.25;;
49948;SDS011;35840;45.982;8.890;2022-07-29T07:24:51;1.80;;;1.60;;
49948;SDS011;35840;45.982;8.890;2022-07-29T07:27:18;1.65;;;1.55;;
49948;SDS011;35840;45.982;8.890;2022-07-29T07:29:44;2.33;;;1.20;;
49948;SDS011;35840;45.982;8.890;2022-07-29T07:32:11;1.45;;;1.25;;
49948;SDS011;35840;45.982;8.890;2022-07-29T07:34:39;3.67;;;1.60;;
49948;SDS011;35840;45.982;8.890;2022-07-29T07:37:06;3.17;;;1.10;;
49948;SDS011;35840;45.982;8.890;2022-07-29T07:39:33;1.33;;;1.05;;
49948;SDS011;35840;45.982;8.890;2022-07-29T07:41:59;4.28;;;1.45;;
49948;SDS011;35840;45.982;8.890;2022-07-29T07:44:26;1.05;;;1.00;;
49948;SDS011;35840;45.982;8.890;2022-07-29T07:46:52;1.60;;;1.50;;
49948;SDS011;35840;45.982;8.890;2022-07-29T07:49:20;3.00;;;1.40;;
49948;SDS011;35840;45.982;8.890;2022-07-29T07:51:47;1.25;;;1.15;;
49948;SDS011;35840;45.982;8.890;2022-07-29T07:54:16;7.05;;;1.17;;
49948;SDS011;35840;45.982;8.890;2022-07-29T07:56:45;2.08;;;1.20;;
49948;SDS011;35840;45.982;8.890;2022-07-29T07:59:18;4.00;;;1.17;;
49948;SDS011;35840;45.982;8.890;2022-07-29T08:01:45;1.40;;;1.30;;
49948;SDS011;35840;45.982;8.890;2022-07-29T08:04:21;3.05;;;1.40;;
49948;SDS011;35840;45.982;8.890;2022-07-29T08:06:54;2.33;;;1.55;;
49948;SDS011;35840;45.982;8.890;2022-07-29T08:09:21;1.40;;;1.30;;
49948;SDS011;35840;45.982;8.890;2022-07-29T08:11:56;1.70;;;1.30;;
49948;SDS011;35840;45.982;8.890;2022-07-29T08:14:25;1.58;;;1.20;;
49948;SDS011;35840;45.982;8.890;2022-07-29T08:16:52;2.53;;;1.15;;
49948;SDS011;35840;45.982;8.890;2022-07-29T08:19:18;1.40;;;1.30;;
49948;SDS011;35840;45.982;8.890;2022-07-29T08:21:45;3.10;;;1.20;;
49948;SDS011;35840;45.982;8.890;2022-07-29T08:24:12;1.33;;;1.23;;
49948;SDS011;35840;45.982;8.890;2022-07-29T08:26:57;2.03;;;1.35;;
49948;SDS011;35840;45.982;8.890;2022-07-29T08:29:24;3.60;;;1.60;;
49948;SDS011;35840;45.982;8.890;2022-07-29T08:31:50;2.85;;;1.20;;
49948;SDS011;35840;45.982;8.890;2022-07-29T08:34:17;1.90;;;1.17;;
49948;SDS011;35840;45.982;8.890;2022-07-29T08:36:52;1.25;;;1.15;;
49948;SDS011;35840;45.982;8.890;2022-07-29T08:39:19;1.88;;;1.60;;
49948;SDS011;35840;45.982;8.890;2022-07-29T08:41:45;1.60;;;1.40;;
49948;SDS011;35840;45.982;8.890;2022-07-29T08:44:22;1.27;;;1.17;;
49948;SDS011;35840;45.982;8.890;2022-07-29T08:46:56;1.55;;;1.45;;
49948;SDS011;35840;45.982;8.890;2022-07-29T08:49:23;1.75;;;1.20;;
49948;SDS011;35840;45.982;8.890;2022-07-29T08:51:49;1.63;;;1.52;;
49948;SDS011;35840;45.982;8.890;2022-07-29T08:54:18;2.45;;;1.02;;
49948;SDS011;35840;45.982;8.890;2022-07-29T08:56:48;1.45;;;1.35;;
49948;SDS011;35840;45.982;8.890;2022-07-29T08:59:17;1.30;;;1.20;;
49948;SDS011;35840;45.982;8.890;2022-07-29T09:01:48;1.40;;;1.15;;
49948;SDS011;35840;45.982;8.890;2022-07-29T09:04:17;1.65;;;1.45;;
49948;SDS011;35840;45.982;8.890;2022-07-29T09:06:46;1.20;;;1.10;;
49948;SDS011;35840;45.982;8.890;2022-07-29T09:09:15;3.05;;;1.50;;
49948;SDS011;35840;45.982;8.890;2022-07-29T09:11:42;1.50;;;1.05;;
49948;SDS011;35840;45.982;8.890;2022-07-29T09:14:13;1.67;;;0.98;;
49948;SDS011;35840;45.982;8.890;2022-07-29T09:16:47;1.70;;;1.33;;
49948;SDS011;35840;45.982;8.890;2022-07-29T09:19:22;1.10;;;1.00;;
49948;SDS011;35840;45.982;8.890;2022-07-29T09:21:51;2.20;;;1.20;;
49948;SDS011;35840;45.982;8.890;2022-07-29T09:24:43;1.45;;;1.27;;
49948;SDS011;35840;45.982;8.890;2022-07-29T09:29:46;1.30;;;1.20;;
49948;SDS011;35840;45.982;8.890;2022-07-29T09:32:13;0.90;;;0.90;;
49948;SDS011;35840;45.982;8.890;2022-07-29T09:34:40;2.00;;;1.20;;
49948;SDS011;35840;45.982;8.890;2022-07-29T09:37:06;1.13;;;1.10;;
49948;SDS011;35840;45.982;8.890;2022-07-29T09:39:35;4.32;;;1.50;;
49948;SDS011;35840;45.982;8.890;2022-07-29T09:42:05;3.08;;;1.23;;
49948;SDS011;35840;45.982;8.890;2022-07-29T09:44:45;1.60;;;1.27;;
49948;SDS011;35840;45.982;8.890;2022-07-29T09:47:15;3.63;;;1.88;;
49948;SDS011;35840;45.982;8.890;2022-07-29T09:49:51;1.40;;;1.30;;
49948;SDS011;35840;45.982;8.890;2022-07-29T09:52:21;1.85;;;1.38;;
49948;SDS011;35840;45.982;8.890;2022-07-29T09:54:48;2.20;;;1.40;;
49948;SDS011;35840;45.982;8.890;2022-07-29T09:57:22;1.13;;;1.13;;
49948;SDS011;35840;45.982;8.890;2022-07-29T09:59:57;2.78;;;1.20;;
49948;SDS011;35840;45.982;8.890;2022-07-29T10:02:31;3.00;;;1.30;;
49948;SDS011;35840;45.982;8.890;2022-07-29T10:05:00;2.10;;;1.30;;
49948;SDS011;35840;45.982;8.890;2022-07-29T10:07:46;2.00;;;1.40;;
49948;SDS011;35840;45.982;8.890;2022-07-29T10:10:23;1.85;;;1.27;;
49948;SDS011;35840;45.982;8.890;2022-07-29T10:12:58;1.88;;;1.30;;
49948;SDS011;35840;45.982;8.890;2022-07-29T10:15:33;1.48;;;1.27;;
49948;SDS011;35840;45.982;8.890;2022-07-29T10:18:07;1.88;;;1.30;;
49948;SDS011;35840;45.982;8.890;2022-07-29T10:20:35;1.58;;;1.10;;
49948;SDS011;35840;45.982;8.890;2022-07-29T10:23:02;1.85;;;1.58;;
49948;SDS011;35840;45.982;8.890;2022-07-29T10:25:29;3.08;;;1.30;;
49948;SDS011;35840;45.982;8.890;2022-07-29T10:27:56;2.58;;;1.60;;
49948;SDS011;35840;45.982;8.890;2022-07-29T10:30:23;2.50;;;1.50;;
49948;SDS011;35840;45.982;8.890;2022-07-29T10:32:54;3.08;;;1.48;;
49948;SDS011;35840;45.982;8.890;2022-07-29T10:38:27;2.22;;;1.80;;
49948;SDS011;35840;45.982;8.890;2022-07-29T10:41:19;1.67;;;1.40;;
49948;SDS011;35840;45.982;8.890;2022-07-29T10:44:20;5.13;;;1.50;;
49948;SDS011;35840;45.982;8.890;2022-07-29T10:46:49;1.60;;;1.38;;
49948;SDS011;35840;45.982;8.890;2022-07-29T10:52:05;3.83;;;1.60;;
49948;SDS011;35840;45.982;8.890;2022-07-29T10:59:43;1.23;;;1.13;;
49948;SDS011;35840;45.982;8.890;2022-07-29T11:05:13;1.55;;;1.45;;
49948;SDS011;35840;45.982;8.890;2022-07-29T11:10:46;3.25;;;1.35;;
49948;SDS011;35840;45.982;8.890;2022-07-29T11:14:00;5.80;;;1.45;;
49948;SDS011;35840;45.982;8.890;2022-07-29T11:16:14;2.83;;;1.90;;
49948;SDS011;35840;45.982;8.890;2022-07-29T11:21:51;2.55;;;1.50;;
49948;SDS011;35840;45.982;8.890;2022-07-29T11:24:30;2.00;;;1.42;;
49948;SDS011;35840;45.982;8.890;2022-07-29T11:29:48;2.17;;;1.60;;
49948;SDS011;35840;45.982;8.890;2022-07-29T11:32:21;1.40;;;1.30;;
49948;SDS011;35840;45.982;8.890;2022-07-29T11:34:50;3.92;;;1.65;;
49948;SDS011;35840;45.982;8.890;2022-07-29T11:37:44;1.42;;;1.33;;
49948;SDS011;35840;45.982;8.890;2022-07-29T11:40:22;1.92;;;1.77;;
49948;SDS011;35840;45.982;8.890;2022-07-29T11:42:50;1.48;;;1.38;;
49948;SDS011;35840;45.982;8.890;2022-07-29T11:45:18;3.85;;;1.80;;
49948;SDS011;35840;45.982;8.890;2022-07-29T11:48:15;2.30;;;2.08;;
49948;SDS011;35840;45.982;8.890;2022-07-29T11:50:57;1.88;;;1.40;;
49948;SDS011;35840;45.982;8.890;2022-07-29T11:53:25;2.35;;;1.60;;
49948;SDS011;35840;45.982;8.890;2022-07-29T11:55:57;1.75;;;1.65;;
49948;SDS011;35840;45.982;8.890;2022-07-29T11:58:26;1.80;;;1.70;;
49948;SDS011;35840;45.982;8.890;2022-07-29T12:00:54;34.67;;;1.92;;
49948;SDS011;35840;45.982;8.890;2022-07-29T12:03:24;1.83;;;1.70;;
49948;SDS011;35840;45.982;8.890;2022-07-29T12:06:00;1.75;;;1.65;;
49948;SDS011;35840;45.982;8.890;2022-07-29T12:08:27;2.25;;;1.52;;
49948;SDS011;35840;45.982;8.890;2022-07-29T12:10:54;2.72;;;1.20;;
49948;SDS011;35840;45.982;8.890;2022-07-29T12:13:21;3.20;;;1.60;;
49948;SDS011;35840;45.982;8.890;2022-07-29T12:16:03;2.80;;;1.70;;
49948;SDS011;35840;45.982;8.890;2022-07-29T12:18:30;6.18;;;1.70;;
49948;SDS011;35840;45.982;8.890;2022-07-29T12:20:58;4.10;;;1.70;;
49948;SDS011;35840;45.982;8.890;2022-07-29T12:23:29;2.25;;;1.25;;
49948;SDS011;35840;45.982;8.890;2022-07-29T12:26:03;2.03;;;1.65;;
49948;SDS011;35840;45.982;8.890;2022-07-29T12:28:36;4.97;;;1.48;;
49948;SDS011;35840;45.982;8.890;2022-07-29T12:31:05;3.92;;;1.67;;
49948;SDS011;35840;45.982;8.890;2022-07-29T12:33:39;2.00;;;1.85;;
49948;SDS011;35840;45.982;8.890;2022-07-29T12:36:06;2.83;;;1.80;;
49948;SDS011;35840;45.982;8.890;2022-07-29T12:38:40;1.52;;;1.42;;
49948;SDS011;35840;45.982;8.890;2022-07-29T12:41:07;1.92;;;1.40;;
49948;SDS011;35840;45.982;8.890;2022-07-29T12:43:33;2.28;;;1.48;;
49948;SDS011;35840;45.982;8.890;2022-07-29T12:46:11;3.20;;;1.75;;
49948;SDS011;35840;45.982;8.890;2022-07-29T12:48:40;1.90;;;1.80;;
49948;SDS011;35840;45.982;8.890;2022-07-29T12:51:09;2.95;;;2.38;;
49948;SDS011;35840;45.982;8.890;2022-07-29T12:53:38;1.83;;;1.60;;
49948;SDS011;35840;45.982;8.890;2022-07-29T12:56:04;2.22;;;1.40;;
49948;SDS011;35840;45.982;8.890;2022-07-29T12:59:10;1.30;;;1.20;;
49948;SDS011;35840;45.982;8.890;2022-07-29T13:01:47;1.25;;;1.20;;
49948;SDS011;35840;45.982;8.890;2022-07-29T13:04:26;1.95;;;1.30;;
49948;SDS011;35840;45.982;8.890;2022-07-29T13:07:00;1.60;;;1.50;;
49948;SDS011;35840;45.982;8.890;2022-07-29T13:09:40;1.48;;;1.30;;
49948;SDS011;35840;45.982;8.890;2022-07-29T13:12:12;1.52;;;1.42;;
49948;SDS011;35840;45.982;8.890;2022-07-29T13:14:43;2.25;;;1.77;;
49948;SDS011;35840;45.982;8.890;2022-07-29T13:17:12;1.90;;;1.45;;
49948;SDS011;35840;45.982;8.890;2022-07-29T13:19:43;3.92;;;1.83;;
49948;SDS011;35840;45.982;8.890;2022-07-29T13:22:16;3.97;;;1.98;;
49948;SDS011;35840;45.982;8.890;2022-07-29T13:27:23;1.67;;;1.58;;
49948;SDS011;35840;45.982;8.890;2022-07-29T13:29:56;1.85;;;1.75;;
49948;SDS011;35840;45.982;8.890;2022-07-29T13:32:24;1.48;;;1.38;;
49948;SDS011;35840;45.982;8.890;2022-07-29T13:34:59;1.70;;;1.50;;
49948;SDS011;35840;45.982;8.890;2022-07-29T13:37:31;1.48;;;1.38;;
49948;SDS011;35840;45.982;8.890;2022-07-29T13:40:00;3.38;;;1.60;;
49948;SDS011;35840;45.982;8.890;2022-07-29T13:42:29;1.92;;;1.83;;
49948;SDS011;35840;45.982;8.890;2022-07-29T13:44:56;2.00;;;1.63;;
49948;SDS011;35840;45.982;8.890;2022-07-29T13:47:23;1.95;;;1.85;;
49948;SDS011;35840;45.982;8.890;2022-07-29T13:49:58;2.67;;;2.40;;
49948;SDS011;35840;45.982;8.890;2022-07-29T13:52:25;3.85;;;2.15;;
49948;SDS011;35840;45.982;8.890;2022-07-29T13:54:52;2.95;;;2.63;;
49948;SDS011;35840;45.982;8.890;2022-07-29T13:57:18;4.78;;;2.60;;
49948;SDS011;35840;45.982;8.890;2022-07-29T13:59:45;2.88;;;2.25;;
49948;SDS011;35840;45.982;8.890;2022-07-29T14:02:19;4.25;;;2.60;;
49948;SDS011;35840;45.982;8.890;2022-07-29T14:04:45;2.90;;;2.70;;
49948;SDS011;35840;45.982;8.890;2022-07-29T14:07:12;4.50;;;3.33;;
49948;SDS011;35840;45.982;8.890;2022-07-29T14:09:41;2.67;;;2.47;;
49948;SDS011;35840;45.982;8.890;2022-07-29T14:12:08;4.13;;;2.88;;
49948;SDS011;35840;45.982;8.890;2022-07-29T14:14:35;3.92;;;2.83;;
49948;SDS011;35840;45.982;8.890;2022-07-29T14:17:03;3.45;;;2.65;;
49948;SDS011;35840;45.982;8.890;2022-07-29T14:19:33;4.20;;;2.85;;
49948;SDS011;35840;45.982;8.890;2022-07-29T14:22:02;6.00;;;3.20;;
49948;SDS011;35840;45.982;8.890;2022-07-29T14:24:30;3.17;;;2.85;;
49948;SDS011;35840;45.982;8.890;2022-07-29T14:26:57;7.15;;;2.83;;
49948;SDS011;35840;45.982;8.890;2022-07-29T14:29:24;6.57;;;2.70;;
49948;SDS011;35840;45.982;8.890;2022-07-29T14:32:07;5.32;;;3.13;;
49948;SDS011;35840;45.982;8.890;2022-07-29T14:34:36;5.47;;;3.33;;
49948;SDS011;35840;45.982;8.890;2022-07-29T14:37:04;3.97;;;3.38;;
49948;SDS011;35840;45.982;8.890;2022-07-29T14:39:32;4.20;;;3.25;;
49948;SDS011;35840;45.982;8.890;2022-07-29T14:42:04;5.45;;;2.92;;
49948;SDS011;35840;45.982;8.890;2022-07-29T14:44:31;5.57;;;3.78;;
49948;SDS011;35840;45.982;8.890;2022-07-29T14:46:58;6.78;;;3.50;;
49948;SDS011;35840;45.982;8.890;2022-07-29T14:49:33;3.70;;;3.17;;
49948;SDS011;35840;45.982;8.890;2022-07-29T14:52:00;5.18;;;3.15;;
49948;SDS011;35840;45.982;8.890;2022-07-29T14:54:27;3.80;;;3.40;;
49948;SDS011;35840;45.982;8.890;2022-07-29T14:56:54;4.65;;;3.33;;
49948;SDS011;35840;45.982;8.890;2022-07-29T14:59:23;3.97;;;3.60;;
49948;SDS011;35840;45.982;8.890;2022-07-29T15:01:50;6.95;;;3.05;;
49948;SDS011;35840;45.982;8.890;2022-07-29T15:04:16;3.50;;;2.85;;
49948;SDS011;35840;45.982;8.890;2022-07-29T15:06:43;6.35;;;4.05;;
49948;SDS011;35840;45.982;8.890;2022-07-29T15:09:10;6.00;;;4.10;;
49948;SDS011;35840;45.982;8.890;2022-07-29T15:11:36;6.45;;;4.28;;
49948;SDS011;35840;45.982;8.890;2022-07-29T15:14:04;4.47;;;3.88;;
49948;SDS011;35840;45.982;8.890;2022-07-29T15:16:32;5.18;;;3.33;;
49948;SDS011;35840;45.982;8.890;2022-07-29T15:18:59;6.38;;;3.55;;
49948;SDS011;35840;45.982;8.890;2022-07-29T15:21:26;8.52;;;3.20;;
49948;SDS011;35840;45.982;8.890;2022-07-29T15:23:53;3.95;;;3.35;;
49948;SDS011;35840;45.982;8.890;2022-07-29T15:26:20;4.05;;;3.08;;
49948;SDS011;35840;45.982;8.890;2022-07-29T15:28:47;4.38;;;3.00;;
49948;SDS011;35840;45.982;8.890;2022-07-29T15:31:14;3.45;;;3.00;;
49948;SDS011;35840;45.982;8.890;2022-07-29T15:33:41;3.60;;;3.22;;
49948;SDS011;35840;45.982;8.890;2022-07-29T15:36:07;3.97;;;3.33;;
49948;SDS011;35840;45.982;8.890;2022-07-29T15:38:34;7.07;;;3.70;;
49948;SDS011;35840;45.982;8.890;2022-07-29T15:41:07;4.40;;;3.53;;
49948;SDS011;35840;45.982;8.890;2022-07-29T15:43:34;4.05;;;3.17;;
49948;SDS011;35840;45.982;8.890;2022-07-29T15:46:03;6.35;;;3.30;;